createdAt,value
2023-02-14T00:00:33.486Z,2.60
2023-02-14T00:03:02.836Z,2.60
2023-02-14T00:05:36.989Z,2.60
2023-02-14T00:08:05.840Z,2.60
2023-02-14T00:10:49.636Z,2.50
2023-02-14T00:13:18.752Z,2.60
2023-02-14T00:15:48.921Z,2.60
2023-02-14T00:18:19.671Z,2.60
2023-02-14T00:20:48.694Z,2.60
2023-02-14T00:23:17.482Z,2.60
2023-02-14T00:25:49.263Z,2.60
2023-02-14T00:28:23.332Z,2.60
2023-02-14T00:30:53.636Z,2.60
2023-02-14T00:33:27.218Z,2.60
2023-02-14T00:35:57.935Z,2.50
2023-02-14T00:38:26.887Z,2.50
2023-02-14T00:40:56.364Z,2.50
2023-02-14T00:43:46.402Z,2.50
2023-02-14T00:46:23.925Z,2.60
2023-02-14T00:48:53.983Z,2.60
2023-02-14T00:51:26.194Z,2.60
2023-02-14T00:53:57.918Z,2.50
2023-02-14T00:56:35.373Z,2.60
2023-02-14T00:59:03.963Z,2.60
2023-02-14T01:01:37.288Z,2.60
2023-02-14T01:04:06.400Z,2.60
2023-02-14T01:06:34.942Z,2.60
2023-02-14T01:09:04.102Z,2.50
2023-02-14T01:11:36.116Z,2.50
2023-02-14T01:14:04.797Z,2.50
2023-02-14T01:16:33.573Z,2.50
2023-02-14T01:19:06.636Z,2.40
2023-02-14T01:21:36.065Z,2.40
2023-02-14T01:24:09.412Z,2.50
2023-02-14T01:26:43.762Z,2.40
2023-02-14T01:29:12.235Z,2.50
2023-02-14T01:31:45.173Z,2.40
2023-02-14T01:34:15.768Z,2.40
2023-02-14T01:36:53.601Z,2.40
2023-02-14T01:39:22.241Z,2.30
2023-02-14T01:41:54.295Z,2.30
2023-02-14T01:45:05.075Z,2.30
2023-02-14T01:47:41.885Z,2.30
2023-02-14T01:50:16.488Z,2.40
2023-02-14T01:52:49.006Z,2.40
2023-02-14T01:55:21.115Z,2.30
2023-02-14T01:57:52.198Z,2.30
2023-02-14T02:00:42.382Z,2.30
2023-02-14T02:03:12.255Z,2.30
2023-02-14T02:05:47.083Z,2.30
2023-02-14T02:08:16.192Z,2.30
2023-02-14T02:10:47.941Z,2.30
2023-02-14T02:13:24.978Z,2.30
2023-02-14T02:16:14.560Z,2.30
2023-02-14T02:18:55.928Z,2.20
2023-02-14T02:21:58.896Z,2.20
2023-02-14T02:24:41.029Z,2.20
2023-02-14T02:27:49.237Z,2.30
2023-02-14T02:31:22.604Z,2.20
2023-02-14T02:34:28.882Z,2.30
2023-02-14T02:37:12.612Z,2.30
2023-02-14T02:39:58.832Z,2.30
2023-02-14T02:42:39.922Z,2.30
2023-02-14T02:45:15.186Z,2.30
2023-02-14T02:47:55.770Z,2.30
2023-02-14T02:50:46.644Z,2.30
2023-02-14T02:53:25.721Z,2.30
2023-02-14T02:56:19.415Z,2.30
2023-02-14T02:58:56.927Z,2.20
2023-02-14T03:01:29.745Z,2.20
2023-02-14T03:04:26.090Z,2.20
2023-02-14T03:06:55.466Z,2.20
2023-02-14T03:09:59.170Z,2.20
2023-02-14T03:13:03.066Z,2.20
2023-02-14T03:16:06.671Z,2.20
2023-02-14T03:18:55.173Z,2.20
2023-02-14T03:21:31.756Z,2.20
2023-02-14T03:24:08.948Z,2.20
2023-02-14T03:26:48.737Z,2.20
2023-02-14T03:29:37.629Z,2.20
2023-02-14T03:32:13.325Z,2.30
2023-02-14T03:35:05.387Z,2.20
2023-02-14T03:40:38.180Z,2.20
2023-02-14T03:43:15.363Z,2.20
2023-02-14T03:45:57.619Z,2.20
2023-02-14T03:48:28.804Z,2.20
2023-02-14T03:51:02.917Z,2.20
2023-02-14T03:54:07.245Z,2.20
2023-02-14T03:57:04.172Z,2.20
2023-02-14T03:59:38.086Z,2.20
2023-02-14T04:02:19.254Z,2.20
2023-02-14T04:05:03.278Z,2.20
2023-02-14T04:07:44.965Z,2.20
2023-02-14T04:10:16.470Z,2.20
2023-02-14T04:12:46.070Z,2.20
2023-02-14T04:15:19.809Z,2.20
2023-02-14T04:18:11.188Z,2.10
2023-02-14T04:20:50.787Z,2.20
2023-02-14T04:23:19.307Z,2.20
2023-02-14T04:25:53.639Z,2.20
2023-02-14T04:28:22.547Z,2.20
2023-02-14T04:30:52.909Z,2.20
2023-02-14T04:33:25.108Z,2.20
2023-02-14T04:35:56.578Z,2.20
2023-02-14T04:38:28.136Z,2.20
2023-02-14T04:40:56.920Z,2.20
2023-02-14T04:43:28.504Z,2.20
2023-02-14T04:45:59.482Z,2.20
2023-02-14T04:48:31.360Z,2.20
2023-02-14T04:51:02.528Z,2.10
2023-02-14T04:53:31.506Z,2.20
2023-02-14T04:56:00.218Z,2.10
2023-02-14T04:58:31.654Z,2.10
2023-02-14T05:01:04.709Z,2.20
2023-02-14T05:03:33.186Z,2.10
2023-02-14T05:06:01.884Z,2.10
2023-02-14T05:08:30.487Z,2.10
2023-02-14T05:10:59.904Z,2.10
2023-02-14T05:13:32.018Z,2.10
2023-02-14T05:16:04.935Z,2.10
2023-02-14T05:18:36.362Z,2.10
2023-02-14T05:21:05.385Z,2.10
2023-02-14T05:23:33.846Z,2.10
2023-02-14T05:26:02.320Z,2.10
2023-02-14T05:28:30.897Z,2.10
2023-02-14T05:30:59.738Z,2.20
2023-02-14T05:33:30.316Z,2.20
2023-02-14T05:36:00.483Z,2.20
2023-02-14T05:38:28.997Z,2.10
2023-02-14T05:40:57.497Z,2.10
2023-02-14T05:43:26.446Z,2.10
2023-02-14T05:45:55.537Z,2.10
2023-02-14T05:48:24.890Z,2.10
2023-02-14T05:50:54.761Z,2.10
2023-02-14T05:53:23.186Z,2.10
2023-02-14T05:55:51.700Z,2.10
2023-02-14T05:58:23.115Z,2.10
2023-02-14T06:00:51.886Z,2.20
2023-02-14T06:03:23.957Z,2.20
2023-02-14T06:05:53.562Z,2.20
2023-02-14T06:08:24.190Z,2.20
2023-02-14T06:10:55.774Z,2.20
2023-02-14T06:13:25.094Z,2.10
2023-02-14T06:15:58.616Z,2.10
2023-02-14T06:18:29.707Z,2.10
2023-02-14T06:20:59.288Z,2.10
2023-02-14T06:26:36.374Z,2.20
2023-02-14T06:29:13.115Z,2.20
2023-02-14T06:31:58.672Z,2.20
2023-02-14T06:34:29.783Z,2.20
2023-02-14T06:37:00.951Z,2.20
2023-02-14T06:39:34.452Z,2.20
2023-02-14T06:42:06.384Z,2.20
2023-02-14T06:44:41.137Z,2.30
2023-02-14T06:47:15.686Z,2.30
2023-02-14T06:49:47.360Z,2.30
2023-02-14T06:52:21.943Z,2.40
2023-02-14T06:54:51.943Z,2.40
2023-02-14T06:57:20.464Z,2.40
2023-02-14T06:59:52.045Z,2.40
2023-02-14T07:02:24.357Z,2.40
2023-02-14T07:05:02.322Z,2.40
2023-02-14T07:07:33.703Z,2.40
2023-02-14T07:10:04.021Z,2.40
2023-02-14T07:12:35.422Z,2.50
2023-02-14T07:15:03.803Z,2.40
2023-02-14T07:17:32.189Z,2.50
2023-02-14T07:20:00.562Z,2.50
2023-02-14T07:22:30.409Z,2.60
2023-02-14T07:24:59.833Z,2.60
2023-02-14T07:27:33.475Z,2.60
2023-02-14T07:30:02.361Z,2.60
2023-02-14T07:36:25.365Z,2.70
2023-02-14T07:38:57.080Z,2.80
2023-02-14T07:41:26.714Z,2.80
2023-02-14T07:44:00.450Z,2.80
2023-02-14T07:46:32.337Z,2.80
2023-02-14T07:49:01.118Z,2.90
2023-02-14T07:51:31.221Z,2.90
2023-02-14T07:54:33.169Z,3.00
2023-02-14T08:00:13.795Z,3.00
2023-02-14T08:02:52.513Z,3.00
2023-02-14T08:05:42.902Z,3.00
2023-02-14T08:15:55.480Z,3.10
2023-02-14T08:18:30.257Z,3.20
2023-02-14T08:20:59.592Z,3.20
2023-02-14T08:23:28.738Z,3.20
2023-02-14T08:26:03.615Z,3.30
2023-02-14T08:28:35.023Z,3.40
2023-02-14T08:31:10.292Z,3.40
2023-02-14T08:47:38.531Z,3.40
2023-02-14T08:50:10.326Z,3.50
2023-02-14T08:52:40.261Z,3.50
2023-02-14T08:55:09.155Z,3.60
2023-02-14T08:57:37.759Z,3.60
2023-02-14T09:00:07.415Z,3.60
2023-02-14T09:02:37.877Z,3.70
2023-02-14T09:05:08.178Z,3.70
2023-02-14T09:07:36.785Z,3.80
2023-02-14T09:10:05.553Z,3.90
2023-02-14T09:12:40.340Z,3.90
2023-02-14T09:15:11.396Z,4.00
2023-02-14T09:17:44.224Z,4.00
2023-02-14T09:20:14.422Z,4.00
2023-02-14T09:22:43.587Z,4.00
2023-02-14T09:25:12.828Z,4.00
2023-02-14T09:27:41.675Z,4.00
2023-02-14T09:30:11.904Z,4.10
2023-02-14T09:32:41.974Z,4.10
2023-02-14T09:35:10.452Z,4.10
2023-02-14T09:37:56.008Z,4.10
2023-02-14T09:40:25.691Z,4.10
2023-02-14T09:43:18.903Z,4.20
2023-02-14T09:45:54.487Z,4.30
2023-02-14T09:48:30.305Z,4.30
2023-02-14T09:51:02.582Z,4.40
2023-02-14T09:53:34.442Z,4.40
2023-02-14T09:56:10.316Z,4.40
2023-02-14T09:58:47.401Z,4.40
2023-02-14T10:01:22.683Z,4.40
2023-02-14T10:04:04.526Z,4.30
2023-02-14T10:06:50.519Z,4.30
2023-02-14T10:09:44.519Z,4.40
2023-02-14T10:12:21.009Z,4.30
2023-02-14T10:14:50.158Z,4.30
2023-02-14T10:17:23.488Z,4.40
2023-02-14T10:19:58.021Z,4.50
2023-02-14T10:22:34.187Z,4.50
2023-02-14T10:25:07.400Z,4.60
2023-02-14T10:27:39.725Z,4.70
2023-02-14T10:30:14.945Z,4.70
2023-02-14T10:32:49.695Z,4.80
2023-02-14T10:35:35.190Z,4.80
2023-02-14T10:38:17.404Z,4.80
2023-02-14T10:41:08.617Z,4.70
2023-02-14T10:43:46.894Z,4.70
2023-02-14T10:46:24.461Z,4.70
2023-02-14T10:49:02.253Z,4.80
2023-02-14T10:51:40.033Z,4.80
2023-02-14T10:54:19.985Z,4.90
2023-02-14T10:56:52.541Z,4.90
2023-02-14T10:59:26.749Z,4.90
2023-02-14T11:01:57.242Z,4.90
2023-02-14T11:04:26.762Z,4.90
2023-02-14T11:06:56.641Z,4.90
2023-02-14T11:09:25.250Z,5.00
2023-02-14T11:11:56.746Z,5.10
2023-02-14T11:14:28.805Z,5.10
2023-02-14T11:16:58.801Z,5.10
2023-02-14T11:19:30.615Z,5.10
2023-02-14T11:22:02.689Z,5.00
2023-02-14T11:24:34.945Z,5.00
2023-02-14T11:27:06.350Z,5.00
2023-02-14T11:29:37.659Z,5.00
2023-02-14T11:32:12.221Z,5.00
2023-02-14T11:34:42.730Z,4.90
2023-02-14T11:37:31.571Z,4.90
2023-02-14T11:40:02.385Z,4.90
2023-02-14T11:42:39.522Z,4.80
2023-02-14T11:45:09.034Z,4.80
2023-02-14T11:47:43.068Z,5.00
2023-02-14T11:50:24.871Z,5.00
2023-02-14T11:52:57.645Z,5.00
2023-02-14T11:55:29.495Z,5.00
2023-02-14T11:57:59.053Z,4.90
2023-02-14T12:00:31.291Z,4.90
2023-02-14T12:03:03.157Z,4.90
2023-02-14T12:05:34.964Z,4.90
2023-02-14T12:08:08.154Z,5.00
2023-02-14T12:10:38.018Z,5.00
2023-02-14T12:13:26.750Z,5.10
2023-02-14T12:15:57.188Z,5.20
2023-02-14T12:19:01.008Z,5.30
2023-02-14T12:21:42.373Z,5.30
2023-02-14T12:24:24.696Z,5.30
2023-02-14T12:27:01.750Z,5.40
2023-02-14T12:29:35.486Z,5.50
2023-02-14T12:32:22.482Z,5.70
2023-02-14T12:34:51.669Z,5.70
2023-02-14T12:37:32.219Z,5.80
2023-02-14T12:40:12.130Z,5.90
2023-02-14T12:43:02.716Z,5.90
2023-02-14T12:45:57.966Z,5.90
2023-02-14T12:48:38.142Z,5.60
2023-02-14T12:51:11.188Z,5.30
2023-02-14T12:53:57.229Z,5.50
2023-02-14T12:56:41.173Z,5.60
2023-02-14T12:59:25.917Z,5.70
2023-02-14T13:02:26.844Z,5.30
2023-02-14T13:05:07.847Z,5.30
2023-02-14T13:07:57.229Z,5.30
2023-02-14T13:10:37.958Z,5.30
2023-02-14T13:13:16.440Z,5.30
2023-02-14T13:15:54.688Z,5.30
2023-02-14T13:18:34.926Z,5.40
2023-02-14T13:21:10.064Z,5.50
2023-02-14T13:23:41.649Z,5.50
2023-02-14T13:26:15.706Z,5.60
2023-02-14T13:28:51.784Z,5.70
2023-02-14T13:31:21.546Z,5.70
2023-02-14T13:33:53.306Z,5.60
2023-02-14T13:36:22.556Z,5.60
2023-02-14T13:41:29.011Z,5.20
2023-02-14T13:44:02.217Z,5.30
2023-02-14T13:46:51.971Z,5.50
2023-02-14T13:49:30.587Z,5.80
2023-02-14T13:52:01.241Z,5.80
2023-02-14T13:54:38.853Z,5.90
2023-02-14T13:57:26.969Z,5.90
2023-02-14T14:00:44.050Z,5.90
2023-02-14T14:03:17.313Z,5.90
2023-02-14T14:06:06.276Z,5.90
2023-02-14T14:08:42.916Z,5.80
2023-02-14T14:11:32.034Z,5.80
2023-02-14T14:14:02.698Z,5.70
2023-02-14T14:16:35.012Z,5.80
2023-02-14T14:19:10.764Z,5.80
2023-02-14T14:21:40.443Z,5.50
2023-02-14T14:24:23.498Z,5.50
2023-02-14T14:26:59.296Z,5.20
2023-02-14T14:29:31.821Z,5.20
2023-02-14T14:32:01.237Z,5.10
2023-02-14T14:34:31.103Z,4.90
2023-02-14T14:37:06.908Z,5.00
2023-02-14T14:39:36.989Z,5.10
2023-02-14T14:42:10.994Z,5.00
2023-02-14T14:44:47.673Z,4.70
2023-02-14T14:47:24.441Z,4.60
2023-02-14T14:49:58.907Z,4.30
2023-02-14T14:52:37.902Z,4.30
2023-02-14T14:55:11.884Z,4.30
2023-02-14T14:57:41.160Z,4.30
2023-02-14T15:00:24.313Z,4.30
2023-02-14T15:03:04.965Z,4.20
2023-02-14T15:05:37.150Z,4.10
2023-02-14T15:08:21.633Z,4.00
2023-02-14T15:10:54.353Z,3.90
2023-02-14T15:13:46.608Z,3.90
2023-02-14T15:16:19.713Z,3.80
2023-02-14T15:18:48.922Z,3.80
2023-02-14T15:21:19.204Z,3.80
2023-02-14T15:23:47.829Z,3.80
2023-02-14T15:26:19.935Z,3.80
2023-02-14T15:28:56.748Z,3.90
2023-02-14T15:31:29.487Z,3.80
2023-02-14T15:34:00.114Z,3.80
2023-02-14T15:36:31.608Z,3.80
2023-02-14T15:39:01.799Z,3.70
2023-02-14T15:41:30.309Z,3.70
2023-02-14T15:43:59.340Z,3.60
2023-02-14T15:46:33.425Z,3.60
2023-02-14T15:49:10.054Z,3.50
2023-02-14T15:51:40.792Z,3.50
2023-02-14T15:54:19.439Z,3.50
2023-02-14T15:56:50.401Z,3.40
2023-02-14T15:59:21.052Z,3.40
2023-02-14T16:01:55.833Z,3.30
2023-02-14T16:04:27.281Z,3.20
2023-02-14T16:07:17.461Z,3.10
2023-02-14T16:09:45.971Z,3.10
2023-02-14T16:12:31.643Z,3.00
2023-02-14T16:15:11.498Z,3.00
2023-02-14T16:17:44.101Z,2.90
2023-02-14T16:20:25.389Z,2.80
2023-02-14T16:23:10.293Z,2.70
2023-02-14T16:25:41.603Z,2.80
2023-02-14T16:28:09.977Z,2.80
2023-02-14T16:30:39.394Z,2.80
2023-02-14T16:33:08.464Z,2.70
2023-02-14T16:35:36.750Z,2.60
2023-02-14T16:38:06.350Z,2.60
2023-02-14T16:40:34.774Z,2.50
2023-02-14T16:43:04.526Z,2.50
2023-02-14T16:45:32.877Z,2.40
2023-02-14T16:48:01.108Z,2.30
2023-02-14T16:50:29.445Z,2.20
2023-02-14T16:52:58.390Z,2.10
2023-02-14T16:55:30.066Z,2.00
2023-02-14T16:58:01.750Z,1.90
2023-02-14T17:00:30.063Z,1.90
2023-02-14T17:03:04.538Z,1.80
2023-02-14T17:05:34.005Z,1.80
2023-02-14T17:08:02.931Z,1.70
2023-02-14T17:10:34.574Z,1.60
2023-02-14T17:13:05.155Z,1.60
2023-02-14T17:15:34.869Z,1.50
2023-02-14T17:18:08.494Z,1.40
2023-02-14T17:20:37.939Z,1.30
2023-02-14T17:23:06.303Z,1.10
2023-02-14T17:25:36.759Z,1.00
2023-02-14T17:28:05.336Z,0.90
2023-02-14T17:30:37.324Z,0.80
2023-02-14T17:33:06.405Z,0.70
2023-02-14T17:35:35.480Z,0.70
2023-02-14T17:38:03.735Z,0.60
2023-02-14T17:40:32.530Z,0.60
2023-02-14T17:43:02.361Z,0.60
2023-02-14T17:45:30.744Z,0.50
2023-02-14T17:48:02.401Z,0.50
2023-02-14T17:50:30.766Z,0.50
2023-02-14T17:52:59.113Z,0.50
2023-02-14T17:55:27.317Z,0.40
2023-02-14T17:57:55.622Z,0.40
2023-02-14T18:00:25.612Z,0.50
2023-02-14T18:02:56.981Z,0.40
2023-02-14T18:05:25.244Z,0.40
2023-02-14T18:07:53.492Z,0.30
2023-02-14T18:10:24.974Z,0.30
2023-02-14T18:12:53.165Z,0.30
2023-02-14T18:15:21.490Z,0.30
2023-02-14T18:17:58.175Z,0.30
2023-02-14T18:20:31.065Z,0.20
2023-02-14T18:23:07.489Z,0.20
2023-02-14T18:25:41.220Z,0.30
2023-02-14T18:31:09.726Z,0.20
2023-02-14T18:33:50.146Z,0.20
2023-02-14T18:36:21.738Z,0.20
2023-02-14T18:39:01.990Z,0.20
2023-02-14T18:41:41.060Z,0.10
2023-02-14T18:44:23.712Z,0.00
2023-02-14T18:46:52.729Z,0.00
2023-02-14T18:49:30.154Z,-0.10
2023-02-14T18:52:07.041Z,-0.10
2023-02-14T18:54:41.218Z,-0.20
2023-02-14T18:57:12.013Z,-0.20
2023-02-14T18:59:45.325Z,-0.10
2023-02-14T19:02:14.483Z,0.00
2023-02-14T19:04:59.110Z,-0.10
2023-02-14T19:07:44.144Z,-0.10
2023-02-14T19:10:16.843Z,0.00
2023-02-14T19:12:48.682Z,0.10
2023-02-14T19:15:19.404Z,0.00
2023-02-14T19:17:54.757Z,-0.10
2023-02-14T19:20:53.171Z,0.00
2023-02-14T19:23:40.723Z,0.00
2023-02-14T19:26:30.013Z,0.00
2023-02-14T19:29:27.046Z,0.00
2023-02-14T19:32:45.408Z,0.10
2023-02-14T19:38:57.834Z,0.30
2023-02-14T19:41:46.287Z,0.30
2023-02-14T19:44:20.698Z,0.30
2023-02-14T19:46:50.296Z,0.30
2023-02-14T19:49:47.269Z,0.20
2023-02-14T19:52:34.527Z,0.30
2023-02-14T19:55:41.666Z,0.30
2023-02-14T19:58:33.949Z,0.30
2023-02-14T20:01:30.420Z,0.30
2023-02-14T20:04:26.750Z,0.20
2023-02-14T20:07:21.789Z,0.20
2023-02-14T20:16:22.230Z,0.00
2023-02-14T20:19:26.131Z,0.00
2023-02-14T20:22:03.707Z,0.10
2023-02-14T20:24:59.153Z,0.10
2023-02-14T20:27:59.798Z,0.20
2023-02-14T20:30:40.230Z,0.20
2023-02-14T20:33:30.258Z,0.10
2023-02-14T20:36:17.908Z,0.20
2023-02-14T20:39:01.096Z,0.20
2023-02-14T20:41:51.832Z,0.20
2023-02-14T20:44:36.101Z,0.20
2023-02-14T20:47:25.285Z,0.20
2023-02-14T20:49:58.166Z,0.20
2023-02-14T20:52:41.597Z,0.20
2023-02-14T20:58:35.594Z,0.20
2023-02-14T21:01:44.170Z,0.10
2023-02-14T21:04:32.396Z,0.00
2023-02-14T21:07:10.661Z,0.00
2023-02-14T21:09:49.709Z,-0.10
2023-02-14T21:12:36.995Z,-0.10
2023-02-14T21:15:20.740Z,-0.10
2023-02-14T21:17:58.198Z,-0.10
2023-02-14T21:20:43.294Z,0.00
2023-02-14T21:23:31.676Z,-0.10
2023-02-14T21:26:33.613Z,-0.20
2023-02-14T21:29:12.833Z,-0.20
2023-02-14T21:32:03.640Z,-0.20
2023-02-14T21:34:57.994Z,-0.10
2023-02-14T21:38:03.957Z,-0.10
2023-02-14T21:41:07.800Z,-0.10
2023-02-14T21:43:56.763Z,-0.10
2023-02-14T21:46:31.185Z,-0.10
2023-02-14T21:49:26.941Z,0.00
2023-02-14T21:52:09.667Z,0.00
2023-02-14T21:55:07.434Z,0.00
2023-02-14T21:57:42.769Z,0.00
2023-02-14T22:03:34.821Z,0.00
2023-02-14T22:06:18.846Z,0.00
2023-02-14T22:08:58.611Z,0.00
2023-02-14T22:11:45.930Z,0.00
2023-02-14T22:14:34.519Z,0.00
2023-02-14T22:17:26.591Z,0.00
2023-02-14T22:20:17.397Z,0.10
2023-02-14T22:23:24.532Z,0.20
2023-02-14T22:26:26.804Z,0.20
2023-02-14T22:29:29.622Z,0.20
2023-02-14T22:32:11.340Z,0.10
2023-02-14T22:38:08.485Z,0.10
2023-02-14T22:41:02.087Z,0.10
2023-02-14T22:54:16.809Z,0.10
2023-02-14T22:56:55.421Z,0.10
2023-02-14T22:59:48.109Z,0.10
2023-02-14T23:02:17.688Z,0.10
2023-02-14T23:04:52.412Z,0.10
2023-02-14T23:07:46.761Z,0.10
2023-02-14T23:10:39.205Z,0.10
2023-02-14T23:16:45.913Z,0.10
2023-02-14T23:19:47.288Z,0.00
2023-02-14T23:22:31.347Z,0.00
2023-02-14T23:25:23.639Z,0.00
2023-02-14T23:31:11.031Z,-0.10
2023-02-14T23:33:55.098Z,0.00
2023-02-14T23:36:35.732Z,0.00
2023-02-14T23:42:14.198Z,-0.10
2023-02-14T23:48:32.722Z,-0.20
2023-02-14T23:51:23.920Z,-0.30
2023-02-14T23:54:21.989Z,-0.30
